Terminal Aerodrome Forecast
Issued by NWS

Home | Current Version | Previous Version | Text Only | Print | Product List | Glossary On
Versions: 1 2 3 4 5 6 7 8 9 10 11 12 13
000
FTUS45 KREV 210500
TAFMMH
TAF
KMMH 210524Z 2106/2206 VRB03KT P6SM VCSH SCT030 BKN060 BKN100
      TEMPO 2106/2108 2SM -TSRA BKN040CB BKN080
     FM211000 10008KT P6SM VCSH SCT040 BKN070
     FM211700 11011G18KT P6SM VCSH SCT030 BKN060
     FM212000 26012G19KT P6SM VCSH SCT040 BKN080
     FM220100 29011KT P6SM SCT050 BKN100
      AMD NOT SKED 2106/2114=

USA.gov is the U.S. government's official web portal to all federal, state and local government web resources and services.